createdAt,value
2018-05-18T00:00:50.646Z,97.8
2018-05-18T00:02:50.770Z,97.6
2018-05-18T00:04:50.086Z,97.5
2018-05-18T00:06:50.322Z,98.5
2018-05-18T00:08:50.507Z,98.0
2018-05-18T00:10:50.684Z,98.3
2018-05-18T00:12:50.828Z,98.2
2018-05-18T00:14:49.988Z,97.8
2018-05-18T00:16:50.257Z,97.9
2018-05-18T00:18:50.412Z,98.7
2018-05-18T00:20:50.628Z,98.3
2018-05-18T00:22:50.858Z,98.1
2018-05-18T00:24:50.108Z,98.4
2018-05-18T00:26:50.385Z,99.0
2018-05-18T00:28:50.553Z,98.9
2018-05-18T00:30:50.757Z,98.6
2018-05-18T00:32:50.942Z,98.4
2018-05-18T00:34:50.554Z,98.7
2018-05-18T00:36:50.764Z,98.5
2018-05-18T00:38:51.025Z,98.6
2018-05-18T00:40:50.232Z,98.7
2018-05-18T00:42:50.411Z,98.7
2018-05-18T00:44:50.628Z,98.6
2018-05-18T00:46:50.891Z,99.1
2018-05-18T00:48:50.059Z,98.8
2018-05-18T00:50:50.223Z,99.0
2018-05-18T00:52:50.333Z,99.4
2018-05-18T00:54:50.495Z,99.2
2018-05-18T00:56:50.663Z,99.2
2018-05-18T00:58:50.824Z,99.5
2018-05-18T01:00:49.993Z,99.1
2018-05-18T01:02:50.146Z,99.4
2018-05-18T01:04:50.575Z,99.4
2018-05-18T01:06:50.854Z,99.1
2018-05-18T01:08:50.106Z,98.9
2018-05-18T01:10:50.387Z,99.2
2018-05-18T01:12:50.718Z,99.5
2018-05-18T01:14:50.939Z,99.5
2018-05-18T01:16:50.168Z,99.2
2018-05-18T01:18:50.328Z,99.6
2018-05-18T01:20:50.544Z,99.6
2018-05-18T01:22:50.693Z,99.3
2018-05-18T01:24:50.810Z,99.3
2018-05-18T01:26:50.058Z,99.5
2018-05-18T01:28:50.195Z,99.1
2018-05-18T01:30:50.324Z,99.5
2018-05-18T01:32:50.615Z,99.3
2018-05-18T01:34:49.996Z,99.6
2018-05-18T01:36:50.275Z,99.9
2018-05-18T01:38:50.449Z,99.9
2018-05-18T01:40:50.648Z,99.8
2018-05-18T01:42:50.877Z,99.8
2018-05-18T01:44:49.997Z,100.0
2018-05-18T01:46:50.198Z,99.5
2018-05-18T01:48:50.344Z,99.7
2018-05-18T01:50:50.514Z,99.8
2018-05-18T01:52:50.719Z,99.5
2018-05-18T01:54:50.860Z,99.8
2018-05-18T01:56:50.081Z,99.5
2018-05-18T01:58:50.337Z,100.0
2018-05-18T02:00:50.504Z,100.0
2018-05-18T02:02:50.686Z,99.7
2018-05-18T02:04:50.095Z,99.5
2018-05-18T02:06:50.379Z,99.5
2018-05-18T02:08:50.232Z,99.5
2018-05-18T02:10:50.420Z,99.4
2018-05-18T02:12:50.573Z,99.5
2018-05-18T02:14:50.690Z,99.5
2018-05-18T02:16:50.903Z,99.8
2018-05-18T02:18:50.102Z,99.6
2018-05-18T02:20:50.205Z,99.7
2018-05-18T02:22:50.353Z,99.5
2018-05-18T02:24:50.521Z,99.6
2018-05-18T02:26:50.779Z,99.5
2018-05-18T02:28:50.953Z,99.9
2018-05-18T02:30:50.223Z,99.7
2018-05-18T02:32:50.471Z,100.0
2018-05-18T02:34:50.836Z,100.0
2018-05-18T02:36:50.467Z,99.9
2018-05-18T02:38:50.681Z,100.0
2018-05-18T02:40:50.900Z,99.8
2018-05-18T02:42:50.245Z,99.8
2018-05-18T02:44:50.486Z,99.8
2018-05-18T02:46:50.810Z,99.8
2018-05-18T02:48:50.053Z,99.6
2018-05-18T02:50:50.222Z,99.8
2018-05-18T02:52:50.421Z,99.7
2018-05-18T02:54:50.669Z,99.7
2018-05-18T02:56:50.862Z,99.3
2018-05-18T02:58:50.142Z,99.2
2018-05-18T03:00:50.296Z,99.2
2018-05-18T03:02:50.478Z,99.4
2018-05-18T03:04:50.874Z,99.2
2018-05-18T03:06:50.277Z,99.1
2018-05-18T03:08:50.474Z,99.1
2018-05-18T03:10:50.723Z,99.0
2018-05-18T03:12:51.009Z,99.3
2018-05-18T03:14:50.184Z,98.5
2018-05-18T03:16:50.401Z,98.5
2018-05-18T03:18:50.652Z,98.7
2018-05-18T03:20:50.840Z,98.7
2018-05-18T03:22:50.063Z,98.7
2018-05-18T03:24:50.220Z,98.8
2018-05-18T03:26:50.417Z,98.6
2018-05-18T03:28:50.630Z,98.6
2018-05-18T03:30:50.818Z,98.7
2018-05-18T03:32:50.013Z,99.0
2018-05-18T03:34:50.437Z,98.4
2018-05-18T03:36:50.679Z,98.4
2018-05-18T03:38:50.806Z,98.3
2018-05-18T03:40:50.952Z,98.3
2018-05-18T03:42:50.076Z,98.5
2018-05-18T03:44:50.267Z,98.5
2018-05-18T03:46:50.566Z,98.5
2018-05-18T03:48:50.757Z,98.7
2018-05-18T03:50:50.053Z,98.6
2018-05-18T03:52:50.301Z,98.5
2018-05-18T03:54:50.560Z,97.9
2018-05-18T03:56:50.826Z,98.1
2018-05-18T03:58:49.999Z,98.5
2018-05-18T04:00:50.267Z,98.5
2018-05-18T04:02:50.444Z,98.8
2018-05-18T04:04:50.821Z,98.6
2018-05-18T04:06:50.057Z,98.1
2018-05-18T04:08:50.737Z,98.0
2018-05-18T04:10:50.900Z,96.8
2018-05-18T04:12:50.119Z,96.9
2018-05-18T04:14:50.285Z,96.3
2018-05-18T04:16:50.536Z,96.4
2018-05-18T04:18:50.714Z,96.2
2018-05-18T04:20:50.917Z,96.8
2018-05-18T04:22:50.135Z,96.5
2018-05-18T04:24:50.251Z,95.5
2018-05-18T04:26:50.936Z,95.8
2018-05-18T04:28:50.173Z,95.0
2018-05-18T04:30:50.371Z,94.6
2018-05-18T04:32:50.526Z,94.5
2018-05-18T04:34:50.012Z,94.3
2018-05-18T04:36:50.258Z,94.0
2018-05-18T04:38:50.412Z,93.7
2018-05-18T04:40:50.597Z,93.1
2018-05-18T04:42:50.823Z,93.2
2018-05-18T04:44:50.915Z,93.6
2018-05-18T04:46:50.220Z,93.2
2018-05-18T04:48:50.406Z,93.0
2018-05-18T04:50:50.700Z,93.7
2018-05-18T04:52:50.876Z,92.1
2018-05-18T04:54:50.014Z,92.5
2018-05-18T04:56:50.209Z,92.1
2018-05-18T04:58:50.765Z,91.9
2018-05-18T05:00:49.969Z,92.5
2018-05-18T05:02:50.214Z,91.2
2018-05-18T05:04:50.573Z,90.6
2018-05-18T05:06:50.813Z,90.5
2018-05-18T05:08:50.000Z,89.1
2018-05-18T05:10:50.204Z,88.7
2018-05-18T05:12:50.363Z,88.7
2018-05-18T05:14:50.544Z,87.8
2018-05-18T05:16:50.870Z,87.8
2018-05-18T05:18:50.126Z,88.8
2018-05-18T05:20:50.313Z,87.3
2018-05-18T05:22:50.490Z,88.8
2018-05-18T05:24:50.721Z,85.8
2018-05-18T05:26:49.981Z,85.2
2018-05-18T05:28:50.101Z,85.7
2018-05-18T05:30:50.259Z,85.1
2018-05-18T05:32:50.403Z,85.4
2018-05-18T05:34:50.781Z,83.8
2018-05-18T05:36:50.251Z,83.8
2018-05-18T05:38:50.364Z,84.1
2018-05-18T05:40:50.623Z,83.1
2018-05-18T05:42:50.781Z,83.3
2018-05-18T05:44:50.913Z,83.1
2018-05-18T05:46:50.594Z,82.3
2018-05-18T05:48:50.822Z,82.6
2018-05-18T05:50:50.949Z,82.2
2018-05-18T05:52:50.456Z,82.1
2018-05-18T05:54:50.669Z,81.8
2018-05-18T05:56:50.992Z,81.6
2018-05-18T05:58:50.172Z,81.6
2018-05-18T06:00:50.394Z,81.3
2018-05-18T06:02:50.652Z,81.3
2018-05-18T06:04:50.881Z,81.3
2018-05-18T06:06:50.187Z,81.5
2018-05-18T06:08:50.315Z,80.8
2018-05-18T06:10:50.488Z,80.8
2018-05-18T06:12:50.807Z,80.8
2018-05-18T06:14:50.134Z,80.7
2018-05-18T06:16:50.387Z,79.6
2018-05-18T06:18:50.559Z,79.9
2018-05-18T06:20:50.698Z,78.7
2018-05-18T06:22:50.953Z,78.4
2018-05-18T06:24:50.117Z,78.3
2018-05-18T06:26:50.473Z,79.2
2018-05-18T06:28:51.354Z,78.3
2018-05-18T06:30:50.543Z,78.5
2018-05-18T06:32:50.736Z,78.5
2018-05-18T06:34:51.321Z,77.7
2018-05-18T06:36:50.567Z,78.7
2018-05-18T06:38:50.705Z,78.2
2018-05-18T06:40:50.902Z,77.7
2018-05-18T06:42:50.455Z,78.5
2018-05-18T06:44:50.682Z,76.7
2018-05-18T06:46:50.599Z,76.3
2018-05-18T06:48:50.307Z,76.3
2018-05-18T06:50:50.487Z,75.8
2018-05-18T06:52:50.698Z,76.8
2018-05-18T06:54:50.852Z,76.4
2018-05-18T06:56:50.138Z,78.9
2018-05-18T06:58:50.957Z,78.4
2018-05-18T07:00:50.231Z,78.4
2018-05-18T07:02:50.429Z,74.5
2018-05-18T07:04:50.065Z,74.2
2018-05-18T07:06:50.531Z,74.3
2018-05-18T07:08:50.207Z,73.6
2018-05-18T07:10:50.303Z,75.5
2018-05-18T07:12:50.441Z,72.6
2018-05-18T07:14:50.614Z,72.5
2018-05-18T07:16:50.875Z,73.1
2018-05-18T07:18:50.050Z,72.0
2018-05-18T07:20:50.184Z,73.1
2018-05-18T07:22:50.377Z,72.9
2018-05-18T07:24:50.542Z,72.2
2018-05-18T07:26:50.743Z,72.9
2018-05-18T07:28:50.865Z,72.9
2018-05-18T07:30:50.051Z,71.5
2018-05-18T07:32:50.267Z,71.6
2018-05-18T07:34:50.718Z,69.3
2018-05-18T07:36:49.988Z,69.0
2018-05-18T07:38:50.113Z,70.0
2018-05-18T07:40:50.258Z,67.9
2018-05-18T07:42:50.439Z,67.2
2018-05-18T07:44:50.619Z,69.8
2018-05-18T07:46:50.862Z,70.3
2018-05-18T07:48:49.986Z,72.2
2018-05-18T07:50:50.189Z,71.4
2018-05-18T07:52:50.441Z,70.2
2018-05-18T07:54:50.670Z,70.2
2018-05-18T07:56:50.883Z,70.3
2018-05-18T07:58:50.057Z,71.3
2018-05-18T08:00:50.249Z,71.8
2018-05-18T08:02:50.461Z,69.0
2018-05-18T08:04:50.731Z,69.2
2018-05-18T08:06:50.126Z,68.8
2018-05-18T08:08:50.285Z,70.3
2018-05-18T08:10:50.469Z,67.6
2018-05-18T08:12:50.595Z,68.0
2018-05-18T08:14:50.815Z,68.0
2018-05-18T08:16:50.148Z,67.6
2018-05-18T08:18:50.251Z,66.7
2018-05-18T08:20:50.376Z,66.9
2018-05-18T08:22:50.516Z,69.3
2018-05-18T08:24:50.631Z,69.9
2018-05-18T08:26:50.782Z,66.2
2018-05-18T08:28:50.893Z,66.0
2018-05-18T08:30:50.009Z,64.9
2018-05-18T08:32:50.147Z,64.5
2018-05-18T08:34:50.546Z,65.9
2018-05-18T08:36:50.748Z,67.5
2018-05-18T08:38:50.875Z,66.0
2018-05-18T08:40:49.993Z,66.0
2018-05-18T08:42:50.235Z,68.2
2018-05-18T08:44:50.418Z,66.1
2018-05-18T08:46:50.681Z,63.7
2018-05-18T08:48:50.908Z,63.5
2018-05-18T08:50:50.115Z,64.8
2018-05-18T08:52:50.435Z,65.5
2018-05-18T08:54:50.713Z,65.0
2018-05-18T08:56:50.907Z,66.4
2018-05-18T08:58:50.176Z,62.7
2018-05-18T09:00:50.437Z,61.7
2018-05-18T09:02:50.635Z,61.1
2018-05-18T09:04:50.006Z,63.5
2018-05-18T09:06:50.206Z,63.4
2018-05-18T09:08:50.502Z,62.1
2018-05-18T09:10:50.507Z,62.1
2018-05-18T09:12:50.614Z,64.0
2018-05-18T09:14:50.849Z,62.3
2018-05-18T09:16:50.082Z,64.1
2018-05-18T09:18:50.321Z,60.3
2018-05-18T09:20:50.509Z,60.6
2018-05-18T09:22:50.706Z,60.3
2018-05-18T09:24:50.914Z,59.9
2018-05-18T09:26:50.151Z,60.5
2018-05-18T09:28:50.314Z,61.6
2018-05-18T09:30:50.417Z,60.4
2018-05-18T09:32:50.543Z,60.9
2018-05-18T09:34:50.907Z,61.3
2018-05-18T09:36:50.155Z,58.6
2018-05-18T09:38:50.337Z,58.6
2018-05-18T09:42:50.179Z,58.1
2018-05-18T09:44:50.411Z,59.1
2018-05-18T09:46:50.712Z,63.7
2018-05-18T09:48:50.857Z,64.8
2018-05-18T09:50:50.024Z,60.7
2018-05-18T09:52:50.186Z,60.7
2018-05-18T09:54:52.136Z,59.8
2018-05-18T09:56:50.433Z,59.8
2018-05-18T09:58:50.590Z,56.2
2018-05-18T10:00:50.731Z,55.4
2018-05-18T10:02:50.862Z,58
2018-05-18T10:04:50.207Z,56.5
2018-05-18T10:06:50.830Z,56.3
2018-05-18T10:08:50.990Z,57.1
2018-05-18T10:10:50.178Z,55.8
2018-05-18T10:12:50.298Z,58
2018-05-18T10:14:50.392Z,58
2018-05-18T10:16:50.609Z,58
2018-05-18T10:18:50.767Z,57
2018-05-18T10:20:50.931Z,57
2018-05-18T10:22:50.156Z,53.9
2018-05-18T10:24:50.244Z,57.4
2018-05-18T10:26:50.570Z,57
2018-05-18T10:28:50.768Z,57
2018-05-18T10:30:50.850Z,57
2018-05-18T10:32:50.618Z,56.0
2018-05-18T10:34:49.972Z,56.0
2018-05-18T10:36:50.251Z,55.0
2018-05-18T10:38:50.375Z,54.6
2018-05-18T10:40:50.473Z,58.9
2018-05-18T10:42:50.619Z,58.0
2018-05-18T10:44:50.699Z,56
2018-05-18T10:46:49.988Z,56
2018-05-18T10:48:50.190Z,56
2018-05-18T10:50:50.397Z,54.0
2018-05-18T10:52:50.603Z,56
2018-05-18T10:54:50.793Z,57
2018-05-18T10:56:50.027Z,56
2018-05-18T10:58:50.168Z,56
2018-05-18T11:00:50.306Z,56
2018-05-18T11:02:50.487Z,56
2018-05-18T11:04:50.822Z,56
2018-05-18T11:06:50.462Z,57
2018-05-18T11:08:50.646Z,56
2018-05-18T11:10:50.771Z,56
2018-05-18T11:12:50.910Z,56
2018-05-18T11:14:50.055Z,57
2018-05-18T11:16:50.280Z,57
2018-05-18T11:18:50.498Z,57
2018-05-18T11:20:50.600Z,57
2018-05-18T11:22:50.746Z,57
2018-05-18T11:24:50.893Z,57
2018-05-18T11:26:50.147Z,57
2018-05-18T11:28:50.285Z,56
2018-05-18T11:30:50.485Z,55
2018-05-18T11:32:50.633Z,55
2018-05-18T11:34:50.949Z,56
2018-05-18T11:36:50.336Z,56
2018-05-18T11:38:50.508Z,56
2018-05-18T11:40:50.656Z,56
2018-05-18T11:42:50.852Z,56
2018-05-18T11:44:50.970Z,56
2018-05-18T11:46:50.204Z,55
2018-05-18T11:48:50.388Z,54
2018-05-18T11:50:50.570Z,54
2018-05-18T11:52:50.727Z,55
2018-05-18T11:54:50.904Z,55
2018-05-18T11:56:50.017Z,55
2018-05-18T11:58:50.168Z,55
2018-05-18T12:00:50.356Z,55
2018-05-18T12:02:51.127Z,55
2018-05-18T12:04:50.608Z,55
2018-05-18T12:06:50.743Z,55
2018-05-18T12:08:50.840Z,55
2018-05-18T12:10:49.990Z,54
2018-05-18T12:12:50.224Z,53
2018-05-18T12:14:50.519Z,54
2018-05-18T12:16:50.815Z,54
2018-05-18T12:18:50.942Z,54
2018-05-18T12:20:50.152Z,53
2018-05-18T12:22:50.340Z,54
2018-05-18T12:24:50.539Z,53
2018-05-18T12:26:50.756Z,53
2018-05-18T12:28:51.258Z,53
2018-05-18T12:30:50.462Z,53
2018-05-18T12:32:50.686Z,53
2018-05-18T12:34:50.102Z,53
2018-05-18T12:36:50.450Z,53
2018-05-18T12:38:50.661Z,53
2018-05-18T12:40:50.827Z,53
2018-05-18T12:42:50.014Z,53
2018-05-18T12:44:50.227Z,52
2018-05-18T12:46:50.489Z,52
2018-05-18T12:48:50.583Z,52
2018-05-18T12:50:50.715Z,52
2018-05-18T12:52:50.820Z,52
2018-05-18T12:54:49.970Z,51
2018-05-18T12:56:50.187Z,52
2018-05-18T12:58:50.303Z,52
2018-05-18T13:00:50.493Z,52
2018-05-18T13:02:50.671Z,52
2018-05-18T13:04:50.056Z,52
2018-05-18T13:06:50.281Z,52
2018-05-18T13:08:50.392Z,52
2018-05-18T13:10:50.620Z,51
2018-05-18T13:12:50.764Z,51
2018-05-18T13:14:50.002Z,52
2018-05-18T13:16:50.389Z,52
2018-05-18T13:18:50.613Z,51
2018-05-18T13:20:50.741Z,51
2018-05-18T13:22:50.877Z,51
2018-05-18T13:24:50.111Z,51
2018-05-18T13:26:50.374Z,50
2018-05-18T13:28:50.553Z,51
2018-05-18T13:30:50.680Z,51
2018-05-18T13:32:50.876Z,50
2018-05-18T13:34:50.336Z,50
2018-05-18T13:36:50.772Z,49
2018-05-18T13:38:52.474Z,49
2018-05-18T13:40:50.754Z,49
2018-05-18T13:42:50.968Z,49
2018-05-18T13:44:50.937Z,49
2018-05-18T13:46:50.295Z,49
2018-05-18T13:48:50.467Z,49
2018-05-18T13:50:50.674Z,49
2018-05-18T13:52:50.891Z,49
2018-05-18T13:54:50.012Z,49
2018-05-18T13:56:50.241Z,49
2018-05-18T13:58:50.390Z,49
2018-05-18T14:00:50.529Z,49
2018-05-18T14:02:51.399Z,48
2018-05-18T14:04:50.841Z,48
2018-05-18T14:06:50.200Z,48
2018-05-18T14:08:50.381Z,48
2018-05-18T14:10:50.502Z,48
2018-05-18T14:12:50.625Z,46
2018-05-18T14:14:50.771Z,45
2018-05-18T14:16:50.940Z,47
2018-05-18T14:18:50.125Z,47
2018-05-18T14:20:50.652Z,47
2018-05-18T14:22:50.834Z,48
2018-05-18T14:24:50.052Z,47
2018-05-18T14:26:50.262Z,47
2018-05-18T14:28:50.395Z,47
2018-05-18T14:30:50.504Z,48
2018-05-18T14:32:50.713Z,47
2018-05-18T14:34:50.114Z,48
2018-05-18T14:36:50.337Z,48
2018-05-18T14:38:50.466Z,48
2018-05-18T14:40:50.625Z,48
2018-05-18T14:42:50.807Z,47
2018-05-18T14:44:50.083Z,47
2018-05-18T14:46:50.481Z,47
2018-05-18T14:48:50.711Z,48
2018-05-18T14:50:50.888Z,48
2018-05-18T14:52:50.095Z,47
2018-05-18T14:54:50.223Z,47
2018-05-18T14:56:50.536Z,47
2018-05-18T14:58:50.702Z,47
2018-05-18T15:00:50.894Z,47
2018-05-18T15:02:50.128Z,47
2018-05-18T15:04:50.428Z,46
2018-05-18T15:06:50.676Z,46
2018-05-18T15:08:50.852Z,46
2018-05-18T15:10:51.302Z,45
2018-05-18T15:12:50.518Z,47
2018-05-18T15:14:50.656Z,47
2018-05-18T15:16:50.894Z,47
2018-05-18T15:18:50.025Z,47
2018-05-18T15:20:50.136Z,47
2018-05-18T15:22:50.261Z,47
2018-05-18T15:24:50.606Z,47
2018-05-18T15:26:50.809Z,47
2018-05-18T15:28:50.831Z,47
2018-05-18T15:30:50.053Z,47
2018-05-18T15:32:50.237Z,47
2018-05-18T15:34:50.755Z,47
2018-05-18T15:36:50.980Z,47
2018-05-18T15:38:50.126Z,48
2018-05-18T15:40:50.340Z,47
2018-05-18T15:42:50.539Z,48
2018-05-18T15:44:50.729Z,48
2018-05-18T15:46:50.958Z,48
2018-05-18T15:48:50.116Z,48
2018-05-18T15:50:50.248Z,48
2018-05-18T15:52:50.437Z,48
2018-05-18T15:54:50.607Z,48
2018-05-18T15:56:50.827Z,48
2018-05-18T15:58:50.934Z,48
2018-05-18T16:00:50.147Z,48
2018-05-18T16:02:50.332Z,48
2018-05-18T16:04:50.769Z,48
2018-05-18T16:06:50.031Z,48
2018-05-18T16:08:50.197Z,48
2018-05-18T16:10:50.323Z,48
2018-05-18T16:12:50.928Z,48
2018-05-18T16:14:50.094Z,48
2018-05-18T16:16:50.373Z,48
2018-05-18T16:18:50.568Z,48
2018-05-18T16:20:50.747Z,49
2018-05-18T16:22:50.919Z,49
2018-05-18T16:24:50.068Z,48
2018-05-18T16:26:50.337Z,48
2018-05-18T16:28:50.585Z,49
2018-05-18T16:30:50.805Z,48
2018-05-18T16:32:50.056Z,48
2018-05-18T16:34:50.510Z,48
2018-05-18T16:36:50.747Z,49
2018-05-18T16:38:50.930Z,48
2018-05-18T16:40:50.088Z,49
2018-05-18T16:42:50.250Z,49
2018-05-18T16:44:50.543Z,49
2018-05-18T16:46:50.774Z,49
2018-05-18T16:48:50.913Z,49
2018-05-18T16:50:50.113Z,49
2018-05-18T16:52:50.614Z,49
2018-05-18T16:54:50.773Z,49
2018-05-18T16:56:50.949Z,49.9
2018-05-18T16:58:50.191Z,51.2
2018-05-18T17:00:50.369Z,50.8
2018-05-18T17:02:50.516Z,50.8
2018-05-18T17:04:50.800Z,52.2
2018-05-18T17:06:50.044Z,52.4
2018-05-18T17:08:50.223Z,52.7
2018-05-18T17:10:50.448Z,53.7
2018-05-18T17:12:50.718Z,53.8
2018-05-18T17:14:50.899Z,54.0
2018-05-18T17:16:50.131Z,55.0
2018-05-18T17:18:50.292Z,54.6
2018-05-18T17:20:50.408Z,55.0
2018-05-18T17:22:50.633Z,56.9
2018-05-18T17:24:50.819Z,55.9
2018-05-18T17:26:50.107Z,56.4
2018-05-18T17:28:50.396Z,56.7
2018-05-18T17:30:50.597Z,58.0
2018-05-18T17:32:50.813Z,57.4
2018-05-18T17:34:50.181Z,57.1
2018-05-18T17:36:50.391Z,59.4
2018-05-18T17:38:50.565Z,57.4
2018-05-18T17:40:50.732Z,58.0
2018-05-18T17:42:50.858Z,58.0
2018-05-18T17:44:49.987Z,58.1
2018-05-18T17:46:50.189Z,57.9
2018-05-18T17:48:50.590Z,59.0
2018-05-18T17:50:50.731Z,57.7
2018-05-18T17:52:50.951Z,58.1
2018-05-18T17:54:50.098Z,58.5
2018-05-18T17:56:50.327Z,58.4
2018-05-18T17:58:50.552Z,58.4
2018-05-18T18:00:50.715Z,58.8
2018-05-18T18:02:50.923Z,59.3
2018-05-18T18:04:50.472Z,58.5
2018-05-18T18:06:50.796Z,59.0
2018-05-18T18:08:50.932Z,59.3
2018-05-18T18:10:50.152Z,60.0
2018-05-18T18:12:50.387Z,62.4
2018-05-18T18:14:50.620Z,60.7
2018-05-18T18:16:50.891Z,61.2
2018-05-18T18:18:50.017Z,61.0
2018-05-18T18:20:50.176Z,61.9
2018-05-18T18:22:50.343Z,61.6
2018-05-18T18:24:50.595Z,61.5
2018-05-18T18:26:50.904Z,62.1
2018-05-18T18:28:50.991Z,62.0
2018-05-18T18:30:50.346Z,62.1
2018-05-18T18:32:50.500Z,62.3
2018-05-18T18:34:50.866Z,63.4
2018-05-18T18:36:50.128Z,63.5
2018-05-18T18:38:50.226Z,63.4
2018-05-18T18:40:50.400Z,63.5
2018-05-18T18:42:50.630Z,63.6
2018-05-18T18:44:50.898Z,66.5
2018-05-18T18:46:50.294Z,64.9
2018-05-18T18:48:50.461Z,64.7
2018-05-18T18:50:50.627Z,64.9
2018-05-18T18:52:50.766Z,65.1
2018-05-18T18:54:50.936Z,66.8
2018-05-18T18:56:50.133Z,67.1
2018-05-18T18:58:51.198Z,66.4
2018-05-18T19:00:50.366Z,65.9
2018-05-18T19:02:50.583Z,66.2
2018-05-18T19:04:50.103Z,65.7
2018-05-18T19:06:50.404Z,66.5
2018-05-18T19:08:50.594Z,66.3
2018-05-18T19:10:50.758Z,66.7
2018-05-18T19:12:50.968Z,66.9
2018-05-18T19:14:50.174Z,67.8
2018-05-18T19:16:50.421Z,68.3
2018-05-18T19:18:50.655Z,67.8
2018-05-18T19:20:50.920Z,68.0
2018-05-18T19:22:50.048Z,68.0
2018-05-18T19:24:50.275Z,68.5
2018-05-18T19:26:50.493Z,68.3
2018-05-18T19:28:50.645Z,68.9
2018-05-18T19:30:50.808Z,68.6
2018-05-18T19:32:50.941Z,69.0
2018-05-18T19:34:50.490Z,69.2
2018-05-18T19:36:50.815Z,69.8
2018-05-18T19:38:49.998Z,70.7
2018-05-18T19:40:50.199Z,70.5
2018-05-18T19:42:50.308Z,70.6
2018-05-18T19:44:50.448Z,70.2
2018-05-18T19:46:50.742Z,70.0
2018-05-18T19:48:50.930Z,70.9
2018-05-18T19:50:50.130Z,72.2
2018-05-18T19:52:50.281Z,70.9
2018-05-18T19:54:50.498Z,70.9
2018-05-18T19:56:50.750Z,70.8
2018-05-18T19:58:50.920Z,71.7
2018-05-18T20:00:50.080Z,71.7
2018-05-18T20:02:50.320Z,72.0
2018-05-18T20:04:50.812Z,72.0
2018-05-18T20:06:50.020Z,74.9
2018-05-18T20:08:50.269Z,73.6
2018-05-18T20:10:50.472Z,74.1
2018-05-18T20:12:50.687Z,73.6
2018-05-18T20:14:50.984Z,73.9
2018-05-18T20:16:50.164Z,74.9
2018-05-18T20:18:50.381Z,75.1
2018-05-18T20:20:50.589Z,75.6
2018-05-18T20:22:50.773Z,74.9
2018-05-18T20:24:50.943Z,75.6
2018-05-18T20:26:50.221Z,75.9
2018-05-18T20:28:50.362Z,75.8
2018-05-18T20:30:50.493Z,75.5
2018-05-18T20:32:50.709Z,75.9
2018-05-18T20:34:50.007Z,75.8
2018-05-18T20:36:50.304Z,76.5
2018-05-18T20:38:50.486Z,77.1
2018-05-18T20:40:50.612Z,78.0
2018-05-18T20:42:50.882Z,78.5
2018-05-18T20:44:50.016Z,77.8
2018-05-18T20:46:50.218Z,77.6
2018-05-18T20:48:50.426Z,77.1
2018-05-18T20:50:50.686Z,77.5
2018-05-18T20:52:50.880Z,77.6
2018-05-18T20:54:50.035Z,78.9
2018-05-18T20:56:50.253Z,77.4
2018-05-18T20:58:50.432Z,77.2
2018-05-18T21:00:50.660Z,76.9
2018-05-18T21:02:50.855Z,77.0
2018-05-18T21:04:50.196Z,77.2
2018-05-18T21:06:50.428Z,77.5
2018-05-18T21:08:50.576Z,77.5
2018-05-18T21:10:50.722Z,77.9
2018-05-18T21:12:50.841Z,78.3
2018-05-18T21:14:50.050Z,78.4
2018-05-18T21:16:50.339Z,78.3
2018-05-18T21:18:50.515Z,78.6
2018-05-18T21:20:50.751Z,80.1
2018-05-18T21:22:50.978Z,79.5
2018-05-18T21:24:50.174Z,79.3
2018-05-18T21:26:50.423Z,78.9
2018-05-18T21:28:50.655Z,79.1
2018-05-18T21:30:50.768Z,79.3
2018-05-18T21:32:50.966Z,80.0
2018-05-18T21:34:50.391Z,80.1
2018-05-18T21:36:50.629Z,80.2
2018-05-18T21:38:50.788Z,80.6
2018-05-18T21:40:50.942Z,81.7
2018-05-18T21:42:50.127Z,81.7
2018-05-18T21:44:50.323Z,81.9
2018-05-18T21:46:50.556Z,81.9
2018-05-18T21:48:50.710Z,81.9
2018-05-18T21:50:50.888Z,81.7
2018-05-18T21:52:50.176Z,82.4
2018-05-18T21:54:50.344Z,82.4
2018-05-18T21:56:50.582Z,82.3
2018-05-18T21:58:50.734Z,82.4
2018-05-18T22:00:50.883Z,82.4
2018-05-18T22:02:50.086Z,82.5
2018-05-18T22:04:50.936Z,82.8
2018-05-18T22:06:51.014Z,82.9
2018-05-18T22:08:50.910Z,82.9
2018-05-18T22:10:51.035Z,83.5
2018-05-18T22:12:50.560Z,84.3
2018-05-18T22:14:50.926Z,84.3
2018-05-18T22:16:50.171Z,84.3
2018-05-18T22:18:50.405Z,84.6
2018-05-18T22:20:50.736Z,84.9
2018-05-18T22:22:50.108Z,85.1
2018-05-18T22:24:50.411Z,85.5
2018-05-18T22:26:50.818Z,85.6
2018-05-18T22:28:50.101Z,85.6
2018-05-18T22:30:50.348Z,85.7
2018-05-18T22:32:50.564Z,85.9
2018-05-18T22:34:50.174Z,86.5
2018-05-18T22:36:50.527Z,86.6
2018-05-18T22:38:50.874Z,86.6
2018-05-18T22:40:50.125Z,86.8
2018-05-18T22:42:50.341Z,86.9
2018-05-18T22:44:50.860Z,87.4
2018-05-18T22:46:50.258Z,87.4
2018-05-18T22:48:50.668Z,87.4
2018-05-18T22:50:50.959Z,87.8
2018-05-18T22:52:50.223Z,87.9
2018-05-18T22:54:50.548Z,88.2
2018-05-18T22:56:50.856Z,88.8
2018-05-18T22:58:50.117Z,89.0
2018-05-18T23:00:50.353Z,88.9
2018-05-18T23:02:50.590Z,88.7
2018-05-18T23:04:50.361Z,89.8
2018-05-18T23:06:50.770Z,90.2
2018-05-18T23:08:50.959Z,89.7
2018-05-18T23:10:50.280Z,89.8
2018-05-18T23:12:50.566Z,89.8
2018-05-18T23:14:50.807Z,89.6
2018-05-18T23:16:50.217Z,89.5
2018-05-18T23:18:50.552Z,89.6
2018-05-18T23:20:50.837Z,89.7
2018-05-18T23:22:50.155Z,90.0
2018-05-18T23:24:50.439Z,90.4
2018-05-18T23:26:50.852Z,90.5
2018-05-18T23:28:50.157Z,90.4
2018-05-18T23:30:50.445Z,90.9
2018-05-18T23:32:50.830Z,90.9
2018-05-18T23:34:50.274Z,91.6
2018-05-18T23:36:50.696Z,91.2
2018-05-18T23:38:50.033Z,91.3
2018-05-18T23:40:50.374Z,91.8
2018-05-18T23:42:50.701Z,91.6
2018-05-18T23:44:50.132Z,92.1
2018-05-18T23:46:50.619Z,91.8
2018-05-18T23:48:50.931Z,91.9
2018-05-18T23:50:50.207Z,92.2
2018-05-18T23:52:50.543Z,92.0
2018-05-18T23:54:50.980Z,92.2
2018-05-18T23:56:50.325Z,92.2
2018-05-18T23:58:50.654Z,92.4
